Time;durP1;ratioP1;P1;durP2;ratioP2;P2;SDS_P1;SDS_P2;PMS_P1;PMS_P2;Temp;Humidity;BMP_temperature;BMP_pressure;BME280_temperature;BME280_humidity;BME280_pressure;Samples;Min_cycle;Max_cycle;Signal;HPM_P1;HPM_P2
2023/09/24 00:01:06;;;;;;;4.40;2.22;;;15.10;79.60;;;;;;4871367;29;20080;-91
2023/09/24 00:03:33;;;;;;;5.18;2.50;;;15.10;79.40;;;;;;4863384;29;20054;-91
2023/09/24 00:06:09;;;;;;;7.18;2.30;;;15.20;79.40;;;;;;4863438;29;20054;-92
2023/09/24 00:08:36;;;;;;;4.45;1.98;;;15.10;79.40;;;;;;4875058;29;20079;-91
2023/09/24 00:11:04;;;;;;;5.37;2.30;;;15.20;79.30;;;;;;4881793;29;20064;-91
2023/09/24 00:13:34;;;;;;;4.85;2.10;;;15.20;79.20;;;;;;4881478;29;20052;-91
2023/09/24 00:16:06;;;;;;;4.55;2.30;;;15.20;79.40;;;;;;4878647;29;20049;-91
2023/09/24 00:18:34;;;;;;;5.60;2.15;;;15.20;79.30;;;;;;4862757;29;20084;-92
2023/09/24 00:21:02;;;;;;;5.57;2.50;;;15.20;79.30;;;;;;4862735;29;20057;-92
2023/09/24 00:23:29;;;;;;;5.17;2.77;;;15.20;79.50;;;;;;4863839;29;20077;-92
2023/09/24 00:25:57;;;;;;;5.93;2.70;;;15.20;79.30;;;;;;4871790;29;20412;-92
2023/09/24 00:28:24;;;;;;;5.90;2.88;;;15.20;79.60;;;;;;4870094;29;20526;-91
2023/09/24 00:30:54;;;;;;;6.07;2.92;;;15.20;79.60;;;;;;4866293;29;20049;-91
2023/09/24 00:33:23;;;;;;;7.25;3.20;;;15.20;79.60;;;;;;4881507;29;20060;-91
2023/09/24 00:35:51;;;;;;;7.00;3.80;;;15.20;79.50;;;;;;4863864;29;20041;-92
2023/09/24 00:38:19;;;;;;;7.40;4.32;;;15.20;79.50;;;;;;4862575;29;20535;-92
2023/09/24 00:40:46;;;;;;;11.00;5.25;;;15.10;79.60;;;;;;4856172;29;20069;-92
2023/09/24 00:43:32;;;;;;;10.90;5.25;;;15.10;79.70;;;;;;4862419;29;20053;-91
2023/09/24 00:46:01;;;;;;;9.63;5.43;;;15.10;79.70;;;;;;4862290;29;20177;-91
2023/09/24 00:48:29;;;;;;;9.53;5.80;;;15.10;80.10;;;;;;4847531;29;20050;-92
2023/09/24 00:50:58;;;;;;;9.38;6.25;;;15.10;80.30;;;;;;4863937;29;20153;-91
2023/09/24 00:53:28;;;;;;;10.65;6.13;;;15.10;80.20;;;;;;4865374;29;20049;-92
2023/09/24 00:55:56;;;;;;;10.43;6.90;;;15.20;80.10;;;;;;4866311;29;20056;-91
2023/09/24 00:58:24;;;;;;;11.43;7.82;;;15.20;80.10;;;;;;4861959;29;20045;-91
2023/09/24 01:00:56;;;;;;;11.40;7.10;;;15.20;80.20;;;;;;4862074;29;20045;-92
2023/09/24 01:03:24;;;;;;;12.73;7.20;;;15.20;80.00;;;;;;4862365;29;20088;-92
2023/09/24 01:05:52;;;;;;;11.32;7.05;;;15.20;79.50;;;;;;4869415;29;20076;-92
2023/09/24 01:08:25;;;;;;;12.23;7.63;;;15.20;79.20;;;;;;4865178;29;20516;-91
2023/09/24 01:10:52;;;;;;;11.23;7.00;;;15.20;79.00;;;;;;4880606;29;20045;-93
2023/09/24 01:13:20;;;;;;;11.40;6.27;;;15.20;78.80;;;;;;4864990;29;20045;-92
2023/09/24 01:15:50;;;;;;;11.32;7.35;;;15.20;78.90;;;;;;4865164;29;20049;-92
2023/09/24 01:18:19;;;;;;;11.88;7.63;;;15.20;79.20;;;;;;4865169;29;20053;-92
2023/09/24 01:20:47;;;;;;;11.93;7.20;;;15.20;79.60;;;;;;4864722;29;20056;-92
2023/09/24 01:23:15;;;;;;;12.05;7.68;;;15.20;79.40;;;;;;4865012;29;20049;-92
2023/09/24 01:25:45;;;;;;;12.57;7.60;;;15.20;79.50;;;;;;4880484;29;20117;-91
2023/09/24 01:28:13;;;;;;;13.13;7.55;;;15.20;79.30;;;;;;4864689;29;20064;-92
2023/09/24 01:30:40;;;;;;;11.40;7.03;;;15.30;79.00;;;;;;4880462;29;20060;-94
2023/09/24 01:33:07;;;;;;;12.60;7.35;;;15.20;78.80;;;;;;4879870;29;20060;-92
2023/09/24 01:35:36;;;;;;;11.02;7.15;;;15.20;79.10;;;;;;4880161;29;20049;-92
2023/09/24 01:38:06;;;;;;;12.00;6.57;;;15.20;79.70;;;;;;4871883;29;20052;-93
2023/09/24 01:40:37;;;;;;;10.35;6.15;;;15.20;79.90;;;;;;4877678;29;20049;-91
2023/09/24 01:43:05;;;;;;;15.27;6.93;;;15.20;79.90;;;;;;4880208;29;20105;-91
2023/09/24 01:45:34;;;;;;;11.93;6.22;;;15.20;80.00;;;;;;4864009;29;20476;-92
2023/09/24 01:48:04;;;;;;;11.38;6.95;;;15.20;80.10;;;;;;4874860;29;20111;-91
2023/09/24 01:50:36;;;;;;;11.60;7.73;;;15.20;80.20;;;;;;4861460;29;20050;-92
2023/09/24 01:53:05;;;;;;;11.52;6.28;;;15.20;80.20;;;;;;4861193;29;20057;-92
2023/09/24 01:55:36;;;;;;;10.77;6.55;;;15.20;80.10;;;;;;4870663;29;20493;-91
2023/09/24 01:58:04;;;;;;;12.13;6.85;;;15.20;80.20;;;;;;4869380;29;20046;-91
2023/09/24 02:00:31;;;;;;;10.02;6.10;;;15.10;80.30;;;;;;4870109;29;20049;-91
2023/09/24 02:03:00;;;;;;;11.60;6.03;;;15.20;80.40;;;;;;4861369;29;20045;-90
2023/09/24 02:05:32;;;;;;;12.00;6.10;;;15.20;80.30;;;;;;4873265;29;20469;-91
2023/09/24 02:08:10;;;;;;;10.38;5.65;;;15.10;80.20;;;;;;4874331;29;20049;-91
2023/09/24 02:10:40;;;;;;;11.15;5.75;;;15.10;80.20;;;;;;4879355;29;20051;-92
2023/09/24 02:13:09;;;;;;;10.77;5.57;;;15.10;80.20;;;;;;4868568;29;20094;-92
2023/09/24 02:15:41;;;;;;;11.30;6.73;;;15.10;80.20;;;;;;4845603;29;20109;-93
2023/09/24 02:18:09;;;;;;;9.63;5.60;;;15.10;80.30;;;;;;4860987;29;20045;-91
2023/09/24 02:20:36;;;;;;;10.07;5.75;;;15.10;80.30;;;;;;4861027;29;20061;-91
2023/09/24 02:23:04;;;;;;;8.82;5.57;;;15.20;80.40;;;;;;4861018;29;20457;-92
2023/09/24 02:25:35;;;;;;;8.93;5.63;;;15.20;80.30;;;;;;4850429;29;20171;-91
2023/09/24 02:28:02;;;;;;;9.17;5.30;;;15.20;80.30;;;;;;4879329;29;20121;-92
2023/09/24 02:30:31;;;;;;;12.73;6.63;;;15.20;80.20;;;;;;4879363;29;20527;-91
2023/09/24 02:33:02;;;;;;;9.85;5.95;;;15.10;80.40;;;;;;4879316;29;20136;-92
2023/09/24 02:35:29;;;;;;;10.88;6.47;;;15.10;80.50;;;;;;4879344;29;20389;-91
2023/09/24 02:37:58;;;;;;;9.65;5.90;;;15.10;80.50;;;;;;4867321;29;20412;-92
2023/09/24 02:40:28;;;;;;;11.33;5.33;;;15.10;80.80;;;;;;4861027;29;20084;-91
2023/09/24 02:42:57;;;;;;;9.48;5.72;;;15.10;81.00;;;;;;4860917;29;20522;-91
2023/09/24 02:45:26;;;;;;;10.75;5.78;;;15.10;81.10;;;;;;4866073;29;20057;-92
2023/09/24 02:47:54;;;;;;;9.52;4.72;;;15.10;81.10;;;;;;4879358;29;20461;-92
2023/09/24 02:50:23;;;;;;;9.38;5.82;;;15.10;81.10;;;;;;4879294;29;20049;-91
2023/09/24 02:52:56;;;;;;;8.33;4.60;;;15.10;81.00;;;;;;4878921;29;20056;-91
2023/09/24 02:55:25;;;;;;;8.63;4.90;;;15.10;80.90;;;;;;4879226;29;20053;-92
2023/09/24 02:57:53;;;;;;;7.30;3.63;;;15.10;80.30;;;;;;4879114;29;20149;-92
2023/09/24 03:00:26;;;;;;;7.60;3.65;;;15.00;79.00;;;;;;4879121;29;20052;-92
2023/09/24 03:02:56;;;;;;;6.60;3.55;;;15.00;78.90;;;;;;4878985;29;20052;-91
2023/09/24 03:05:24;;;;;;;8.73;3.90;;;15.00;78.20;;;;;;4868497;29;20508;-91
2023/09/24 03:07:55;;;;;;;6.85;3.40;;;14.90;78.30;;;;;;4869510;29;20126;-92
2023/09/24 03:10:24;;;;;;;6.45;3.35;;;14.90;78.70;;;;;;4871989;29;20045;-92
2023/09/24 03:12:51;;;;;;;7.40;3.80;;;14.90;78.40;;;;;;4859267;29;20061;-90
2023/09/24 03:15:22;;;;;;;7.90;4.13;;;14.90;78.70;;;;;;4874421;29;20089;-90
2023/09/24 03:17:51;;;;;;;8.47;4.00;;;14.80;79.00;;;;;;4873648;29;20053;-90
2023/09/24 03:20:18;;;;;;;6.35;3.67;;;14.80;78.70;;;;;;4863375;29;20042;-91
2023/09/24 03:22:51;;;;;;;7.97;3.50;;;14.80;78.90;;;;;;4878418;29;20053;-91
2023/09/24 03:25:26;;;;;;;6.50;3.72;;;14.70;78.30;;;;;;4852714;29;20147;-91
2023/09/24 03:27:56;;;;;;;8.80;3.72;;;14.60;78.80;;;;;;4863835;29;20062;-91
2023/09/24 03:30:25;;;;;;;8.87;3.50;;;14.60;79.00;;;;;;4855496;29;20054;-91
2023/09/24 03:32:55;;;;;;;8.70;4.30;;;14.70;79.00;;;;;;4859026;29;20045;-91
2023/09/24 03:35:24;;;;;;;6.72;3.95;;;14.70;79.40;;;;;;4862822;29;20045;-90
2023/09/24 03:37:53;;;;;;;8.48;3.80;;;14.80;79.80;;;;;;4872139;29;20500;-90
2023/09/24 03:40:25;;;;;;;7.57;4.82;;;14.80;80.00;;;;;;4868871;29;20045;-92
2023/09/24 03:42:53;;;;;;;8.43;4.00;;;14.80;80.00;;;;;;4863601;29;20091;-92
2023/09/24 03:45:24;;;;;;;8.70;4.07;;;14.80;80.00;;;;;;4860727;29;20075;-91
2023/09/24 03:47:54;;;;;;;7.97;4.38;;;14.80;79.90;;;;;;4882071;29;20052;-92
2023/09/24 03:50:22;;;;;;;7.72;4.05;;;14.80;79.80;;;;;;4879829;29;20052;-92
2023/09/24 03:52:51;;;;;;;8.15;4.63;;;14.70;79.70;;;;;;4863142;29;20057;-92
2023/09/24 03:55:21;;;;;;;8.67;4.33;;;14.70;80.10;;;;;;4848079;29;20044;-91
2023/09/24 03:57:49;;;;;;;9.88;4.00;;;14.80;79.70;;;;;;4867853;29;20073;-92
2023/09/24 04:00:21;;;;;;;7.57;3.90;;;14.70;79.60;;;;;;4868713;29;20077;-91
2023/09/24 04:02:50;;;;;;;10.07;4.05;;;14.60;79.30;;;;;;4863418;29;20046;-91
2023/09/24 04:05:21;;;;;;;8.23;3.92;;;14.50;79.60;;;;;;4875589;29;20045;-92
2023/09/24 04:07:54;;;;;;;8.67;4.17;;;14.50;79.80;;;;;;4882207;29;20045;-92
2023/09/24 04:10:24;;;;;;;7.40;3.83;;;14.50;80.10;;;;;;4871184;29;20049;-91
2023/09/24 04:12:51;;;;;;;8.77;3.83;;;14.40;80.10;;;;;;4880835;29;20508;-91
2023/09/24 04:15:21;;;;;;;8.90;5.07;;;14.50;79.80;;;;;;4862970;29;20110;-92
2023/09/24 04:17:49;;;;;;;8.70;5.53;;;14.50;80.70;;;;;;4863326;29;20580;-91
2023/09/24 04:20:17;;;;;;;8.90;5.00;;;14.50;81.10;;;;;;4863062;29;20046;-91
2023/09/24 04:22:45;;;;;;;9.30;4.10;;;14.50;81.20;;;;;;4862795;29;20066;-91
2023/09/24 04:25:14;;;;;;;7.82;4.43;;;14.50;81.20;;;;;;4863207;29;20049;-92
2023/09/24 04:27:44;;;;;;;8.80;4.18;;;14.50;80.90;;;;;;4869309;29;20053;-92
2023/09/24 04:30:16;;;;;;;8.55;4.30;;;14.50;80.60;;;;;;4862742;29;20057;-91
2023/09/24 04:32:48;;;;;;;6.73;4.30;;;14.60;80.50;;;;;;4854256;29;20149;-91
2023/09/24 04:35:19;;;;;;;7.90;3.85;;;14.70;80.40;;;;;;4865363;29;20049;-91
2023/09/24 04:37:47;;;;;;;7.65;4.20;;;14.60;80.20;;;;;;4862737;29;20053;-91
2023/09/24 04:40:15;;;;;;;9.32;4.80;;;14.70;79.90;;;;;;4862631;29;20054;-91
2023/09/24 04:42:43;;;;;;;6.72;3.97;;;14.70;80.00;;;;;;4847235;29;20050;-92
2023/09/24 04:45:11;;;;;;;7.03;3.23;;;14.60;80.10;;;;;;4877449;29;20492;-91
2023/09/24 04:47:40;;;;;;;8.68;4.65;;;14.60;80.10;;;;;;4880975;29;20144;-92
2023/09/24 04:50:12;;;;;;;7.93;4.03;;;14.60;79.90;;;;;;4880994;29;20102;-92
2023/09/24 04:52:41;;;;;;;7.28;3.92;;;14.70;80.00;;;;;;4880971;29;20415;-92
2023/09/24 04:55:09;;;;;;;7.13;3.80;;;14.80;80.10;;;;;;4881092;29;20049;-91
2023/09/24 04:57:37;;;;;;;7.53;4.00;;;14.70;79.80;;;;;;4871073;29;20053;-91
2023/09/24 05:00:04;;;;;;;7.72;4.50;;;14.80;79.80;;;;;;4862204;29;20054;-91
2023/09/24 05:02:32;;;;;;;7.28;4.25;;;14.80;79.70;;;;;;4862317;29;20049;-92
2023/09/24 05:04:59;;;;;;;7.63;4.38;;;14.80;79.70;;;;;;4865572;29;20141;-91
2023/09/24 05:07:26;;;;;;;7.35;4.03;;;14.80;79.90;;;;;;4880935;29;20495;-92
2023/09/24 05:09:53;;;;;;;9.47;4.17;;;14.80;80.00;;;;;;4865159;29;20088;-92
2023/09/24 05:12:22;;;;;;;9.05;4.40;;;14.80;80.00;;;;;;4880943;29;20447;-92
2023/09/24 05:14:49;;;;;;;8.25;4.28;;;14.80;80.00;;;;;;4868374;29;20052;-91
2023/09/24 05:17:16;;;;;;;8.18;4.60;;;14.80;80.00;;;;;;4862364;29;20050;-91
2023/09/24 05:19:43;;;;;;;8.65;4.30;;;14.80;80.20;;;;;;4877436;29;20518;-90
2023/09/24 05:22:10;;;;;;;7.90;4.60;;;14.90;80.20;;;;;;4864360;29;20068;-91
2023/09/24 05:24:37;;;;;;;7.38;4.10;;;14.80;80.10;;;;;;4861982;29;20419;-92
2023/09/24 05:27:04;;;;;;;9.55;4.50;;;14.80;80.20;;;;;;4876492;29;20048;-91
2023/09/24 05:29:31;;;;;;;9.45;4.95;;;14.70;80.40;;;;;;4879256;29;20076;-91
2023/09/24 05:32:00;;;;;;;8.32;4.53;;;14.80;80.70;;;;;;4880269;29;20514;-91
2023/09/24 05:34:28;;;;;;;9.20;4.87;;;14.70;80.40;;;;;;4855639;29;20042;-92
2023/09/24 05:36:55;;;;;;;7.80;4.60;;;14.70;80.40;;;;;;4878993;29;20535;-91
2023/09/24 05:39:22;;;;;;;8.45;4.80;;;14.70;80.50;;;;;;4879945;29;20120;-92
2023/09/24 05:41:49;;;;;;;7.93;4.85;;;14.50;80.70;;;;;;4876194;29;20099;-92
2023/09/24 05:44:17;;;;;;;8.77;4.70;;;14.50;80.90;;;;;;4861087;29;20097;-91
2023/09/24 05:46:44;;;;;;;8.13;4.90;;;14.60;80.90;;;;;;4869068;29;20057;-91
2023/09/24 05:49:12;;;;;;;8.23;4.72;;;14.70;80.80;;;;;;4861468;29;20136;-92
2023/09/24 05:51:39;;;;;;;10.80;4.65;;;14.70;80.80;;;;;;4869578;29;20048;-90
2023/09/24 05:54:07;;;;;;;8.30;4.35;;;14.70;80.20;;;;;;4870854;29;20499;-91
2023/09/24 05:56:34;;;;;;;11.13;4.82;;;14.60;80.30;;;;;;4864994;29;20466;-91
2023/09/24 05:59:02;;;;;;;7.57;4.33;;;14.60;80.40;;;;;;4866014;29;20045;-90
2023/09/24 06:01:30;;;;;;;7.28;4.43;;;14.60;80.80;;;;;;4876835;29;20101;-91
2023/09/24 06:03:57;;;;;;;9.45;4.95;;;14.60;80.50;;;;;;4876620;29;20094;-91
2023/09/24 06:06:24;;;;;;;8.77;5.50;;;14.60;80.60;;;;;;4873242;29;20434;-91
2023/09/24 06:08:55;;;;;;;9.80;4.97;;;14.70;80.80;;;;;;4876956;29;20056;-92
2023/09/24 06:11:22;;;;;;;9.87;5.00;;;14.60;80.50;;;;;;4865603;29;20412;-91
2023/09/24 06:13:49;;;;;;;9.40;5.05;;;14.60;79.50;;;;;;4898225;29;20053;-91
2023/09/24 06:16:17;;;;;;;10.77;5.28;;;14.60;79.50;;;;;;4884939;29;20068;-91
2023/09/24 06:18:44;;;;;;;8.32;5.28;;;14.50;79.80;;;;;;4845960;29;20442;-90
2023/09/24 06:21:18;;;;;;;12.52;5.13;;;14.50;80.10;;;;;;4845905;29;20101;-91
2023/09/24 06:23:45;;;;;;;9.80;4.70;;;14.50;80.10;;;;;;4861033;29;20081;-91
2023/09/24 06:26:13;;;;;;;8.75;5.38;;;14.40;80.30;;;;;;4846090;29;20080;-90
2023/09/24 06:28:40;;;;;;;9.00;5.13;;;14.50;80.80;;;;;;4862367;29;20516;-91
2023/09/24 06:31:20;;;;;;;9.27;4.95;;;14.50;80.30;;;;;;4879661;29;20056;-91
2023/09/24 06:33:48;;;;;;;8.77;4.82;;;14.50;80.60;;;;;;4876608;29;20046;-91
2023/09/24 06:36:16;;;;;;;9.37;4.80;;;14.60;80.30;;;;;;4870105;29;20144;-92
2023/09/24 06:38:44;;;;;;;9.57;4.85;;;14.60;79.80;;;;;;4863397;29;20103;-92
2023/09/24 06:41:12;;;;;;;10.07;5.78;;;14.60;79.90;;;;;;4863354;29;20140;-91
2023/09/24 06:43:39;;;;;;;8.45;5.32;;;14.70;80.10;;;;;;4860913;29;20173;-91
2023/09/24 06:46:06;;;;;;;9.07;5.10;;;14.80;80.40;;;;;;4866820;29;20136;-92
2023/09/24 06:48:33;;;;;;;8.17;4.40;;;14.80;79.90;;;;;;4866746;29;20049;-91
2023/09/24 06:51:08;;;;;;;11.73;5.50;;;14.70;80.10;;;;;;4864728;29;20057;-91
2023/09/24 06:53:39;;;;;;;8.13;4.70;;;14.60;80.00;;;;;;4858905;29;20452;-91
2023/09/24 06:56:07;;;;;;;9.60;4.93;;;14.60;79.90;;;;;;4863581;29;20072;-91
2023/09/24 06:58:35;;;;;;;11.35;5.05;;;14.60;79.80;;;;;;4867293;29;20033;-91
2023/09/24 07:01:03;;;;;;;9.50;5.53;;;14.60;79.80;;;;;;4867484;29;20050;-91
2023/09/24 07:03:31;;;;;;;9.27;4.82;;;14.70;80.30;;;;;;4864274;29;20050;-92
2023/09/24 07:05:59;;;;;;;8.52;5.50;;;14.60;80.00;;;;;;4849068;29;20050;-91
2023/09/24 07:08:27;;;;;;;10.02;5.38;;;14.80;80.20;;;;;;4872249;29;20045;-91
2023/09/24 07:11:34;;;;;;;10.20;4.95;;;14.90;80.30;;;;;;4866538;29;20073;-91
2023/09/24 07:14:04;;;;;;;8.27;5.23;;;14.90;79.70;;;;;;4875659;29;20075;-92
2023/09/24 07:16:31;;;;;;;10.13;5.45;;;14.80;79.50;;;;;;4866200;29;20525;-91
2023/09/24 07:18:59;;;;;;;9.98;5.68;;;14.70;79.20;;;;;;4864491;29;20408;-92
2023/09/24 07:21:31;;;;;;;8.82;5.30;;;14.60;79.70;;;;;;4848774;29;20054;-91
2023/09/24 07:24:03;;;;;;;8.38;5.13;;;14.50;79.40;;;;;;4874214;29;20057;-91
2023/09/24 07:26:31;;;;;;;11.83;5.80;;;14.60;79.90;;;;;;4869960;29;20055;-91
2023/09/24 07:29:00;;;;;;;12.95;5.85;;;14.60;80.30;;;;;;4871890;29;20065;-91
2023/09/24 07:31:29;;;;;;;9.27;5.28;;;14.70;80.40;;;;;;4872003;29;20060;-91
2023/09/24 07:33:59;;;;;;;9.82;6.13;;;14.70;80.50;;;;;;4873179;29;20408;-91
2023/09/24 07:36:27;;;;;;;10.85;6.07;;;14.80;80.30;;;;;;4854730;29;20053;-92
2023/09/24 07:39:04;;;;;;;8.07;5.13;;;14.80;79.80;;;;;;4880472;29;20075;-91
2023/09/24 07:41:32;;;;;;;9.23;5.00;;;14.90;79.60;;;;;;4862992;29;20045;-92
2023/09/24 07:43:59;;;;;;;9.10;5.55;;;15.00;79.40;;;;;;4868661;29;20069;-91
2023/09/24 07:46:26;;;;;;;8.55;5.43;;;15.00;78.90;;;;;;4874456;29;20045;-90
2023/09/24 07:48:53;;;;;;;11.25;6.25;;;15.00;79.00;;;;;;4878246;29;20069;-91
2023/09/24 07:51:22;;;;;;;9.67;5.50;;;14.90;78.80;;;;;;4852026;29;20105;-90
2023/09/24 07:53:50;;;;;;;9.38;5.60;;;14.90;79.20;;;;;;4864698;29;20052;-90
2023/09/24 07:56:18;;;;;;;9.82;5.43;;;14.90;78.70;;;;;;4876830;29;20045;-91
2023/09/24 07:58:45;;;;;;;9.48;5.65;;;14.70;78.60;;;;;;4877951;29;20038;-91
2023/09/24 08:01:13;;;;;;;10.65;6.35;;;14.80;79.30;;;;;;4880362;29;20049;-90
2023/09/24 08:03:44;;;;;;;12.00;7.77;;;14.70;79.50;;;;;;4872256;29;20053;-92
2023/09/24 08:06:12;;;;;;;12.13;7.40;;;14.70;79.40;;;;;;4863362;29;20416;-92
2023/09/24 08:08:40;;;;;;;13.13;8.32;;;14.70;79.20;;;;;;4847240;29;20088;-91
2023/09/24 08:11:22;;;;;;;11.40;6.90;;;14.70;79.30;;;;;;4866111;29;20059;-92
2023/09/24 08:13:49;;;;;;;11.52;6.40;;;14.70;79.50;;;;;;4876654;29;20045;-95
2023/09/24 08:16:20;;;;;;;11.27;6.87;;;14.70;79.50;;;;;;4865609;29;20045;-93
2023/09/24 08:18:48;;;;;;;10.23;6.43;;;14.70;79.90;;;;;;4881084;29;20082;-93
2023/09/24 08:21:16;;;;;;;10.30;6.45;;;14.70;79.50;;;;;;4866089;29;20057;-93
2023/09/24 08:23:44;;;;;;;10.82;6.70;;;14.70;79.70;;;;;;4864737;29;20106;-92
2023/09/24 08:26:11;;;;;;;10.77;6.18;;;14.80;79.00;;;;;;4879799;29;20049;-89
2023/09/24 08:28:38;;;;;;;9.80;6.13;;;14.90;79.00;;;;;;4879758;29;20148;-91
2023/09/24 08:31:11;;;;;;;10.65;6.32;;;14.90;79.50;;;;;;4866169;29;20060;-89
2023/09/24 08:33:40;;;;;;;11.93;6.45;;;14.90;79.80;;;;;;4857441;29;20101;-87
2023/09/24 08:36:11;;;;;;;10.20;6.85;;;15.00;78.90;;;;;;4870336;29;20060;-88
2023/09/24 08:38:38;;;;;;;10.82;6.60;;;15.10;78.80;;;;;;4856621;29;20077;-87
2023/09/24 08:41:13;;;;;;;9.90;6.10;;;15.10;79.20;;;;;;4865767;29;20041;-88
2023/09/24 08:43:42;;;;;;;10.68;7.03;;;15.30;79.30;;;;;;4877970;29;20458;-88
2023/09/24 08:46:10;;;;;;;11.98;7.82;;;15.30;78.80;;;;;;4847163;29;20042;-88
2023/09/24 08:48:39;;;;;;;11.13;6.80;;;15.30;78.50;;;;;;4865934;29;20049;-89
2023/09/24 08:51:09;;;;;;;12.90;7.07;;;15.40;78.50;;;;;;4880935;29;20057;-88
2023/09/24 08:53:38;;;;;;;10.03;6.63;;;15.40;78.30;;;;;;4862175;29;20053;-88
2023/09/24 08:56:07;;;;;;;13.40;7.28;;;15.50;77.90;;;;;;4862370;29;20054;-88
2023/09/24 08:58:36;;;;;;;12.50;7.30;;;15.50;78.50;;;;;;4864768;29;20053;-90
2023/09/24 09:01:09;;;;;;;11.07;7.13;;;15.50;77.80;;;;;;4880885;29;20049;-89
2023/09/24 09:03:37;;;;;;;13.43;7.55;;;15.50;78.50;;;;;;4872382;29;20060;-90
2023/09/24 09:06:04;;;;;;;13.37;6.67;;;15.50;77.60;;;;;;4862141;29;20087;-89
2023/09/24 09:08:50;;;;;;;10.00;6.57;;;15.50;77.90;;;;;;4847080;29;20054;-90
2023/09/24 09:11:19;;;;;;;14.07;8.32;;;15.40;78.00;;;;;;4874444;29;20045;-89
2023/09/24 09:13:52;;;;;;;12.05;7.97;;;15.50;78.10;;;;;;4848626;29;20045;-89
2023/09/24 09:16:22;;;;;;;12.60;8.13;;;15.50;78.20;;;;;;4880676;29;20045;-89
2023/09/24 09:19:03;;;;;;;11.73;7.90;;;15.60;78.00;;;;;;4880518;29;20045;-89
2023/09/24 09:21:30;;;;;;;12.65;7.40;;;15.70;78.30;;;;;;4864287;29;20148;-89
2023/09/24 09:23:57;;;;;;;10.52;7.45;;;15.60;78.00;;;;;;4864882;29;20049;-89
2023/09/24 09:26:28;;;;;;;11.95;7.15;;;15.70;77.70;;;;;;4880374;29;20056;-89
2023/09/24 09:28:56;;;;;;;10.38;7.15;;;15.60;77.80;;;;;;4880181;29;20053;-89
2023/09/24 09:31:23;;;;;;;13.17;7.20;;;15.60;77.60;;;;;;4880494;29;20507;-89
2023/09/24 09:33:50;;;;;;;13.40;7.72;;;15.60;77.70;;;;;;4880037;29;20067;-89
2023/09/24 09:36:30;;;;;;;12.98;8.25;;;15.70;77.50;;;;;;4865131;29;20136;-90
2023/09/24 09:38:58;;;;;;;13.50;8.57;;;15.70;76.90;;;;;;4880043;29;20048;-88
2023/09/24 09:41:26;;;;;;;10.70;7.50;;;15.70;76.90;;;;;;4880165;29;20045;-88
2023/09/24 09:43:54;;;;;;;13.37;7.77;;;15.80;77.90;;;;;;4880056;29;20072;-88
2023/09/24 09:46:23;;;;;;;11.48;7.05;;;15.90;77.00;;;;;;4864613;29;20073;-89
2023/09/24 09:48:56;;;;;;;12.55;6.88;;;15.70;76.50;;;;;;4879840;29;20053;-89
2023/09/24 09:51:25;;;;;;;14.48;7.82;;;15.70;76.30;;;;;;4879873;29;20049;-89
2023/09/24 09:53:54;;;;;;;11.27;6.68;;;15.60;77.30;;;;;;4880757;29;20060;-91
2023/09/24 09:56:23;;;;;;;13.33;6.63;;;15.80;77.70;;;;;;4880234;29;20049;-88
2023/09/24 09:58:51;;;;;;;11.77;6.30;;;16.00;76.50;;;;;;4880029;29;20045;-87
2023/09/24 10:01:20;;;;;;;11.55;6.22;;;16.00;75.60;;;;;;4879652;29;20045;-94
2023/09/24 10:03:53;;;;;;;10.15;5.95;;;15.90;75.90;;;;;;4875141;29;20055;-91
2023/09/24 10:06:22;;;;;;;10.20;5.90;;;15.90;75.70;;;;;;4854607;29;20045;-91
2023/09/24 10:08:49;;;;;;;9.23;5.40;;;15.80;74.70;;;;;;4864621;29;20060;-90
2023/09/24 10:11:32;;;;;;;10.80;5.10;;;15.90;75.00;;;;;;4866173;29;20571;-90
2023/09/24 10:14:01;;;;;;;8.43;5.03;;;15.90;74.40;;;;;;4880840;29;20053;-90
2023/09/24 10:16:30;;;;;;;12.13;5.20;;;15.80;73.80;;;;;;4884584;29;20049;-91
2023/09/24 10:19:01;;;;;;;7.88;4.90;;;15.70;74.20;;;;;;4880884;29;20120;-89
2023/09/24 10:22:06;;;;;;;9.87;5.13;;;15.70;74.70;;;;;;4875531;29;20050;-87
2023/09/24 10:24:36;;;;;;;10.50;5.15;;;15.60;74.40;;;;;;4861964;29;20131;-92
2023/09/24 10:27:03;;;;;;;8.75;5.65;;;15.70;74.80;;;;;;4861987;29;20084;-91
2023/09/24 10:29:46;;;;;;;9.13;5.20;;;15.70;74.80;;;;;;4864533;29;20060;-89
2023/09/24 10:32:17;;;;;;;10.18;5.75;;;15.80;74.90;;;;;;4867529;29;20056;-89
2023/09/24 10:34:54;;;;;;;9.93;5.17;;;15.90;75.40;;;;;;4846230;29;20046;-91
2023/09/24 10:37:29;;;;;;;8.68;4.88;;;15.90;74.40;;;;;;4865442;29;20041;-88
2023/09/24 10:40:00;;;;;;;7.53;4.57;;;15.90;75.50;;;;;;4872989;29;20456;-88
2023/09/24 10:42:29;;;;;;;10.63;5.50;;;16.00;75.20;;;;;;4866824;29;20113;-88
2023/09/24 10:45:14;;;;;;;10.52;5.55;;;16.10;75.80;;;;;;4865194;29;20057;-88
2023/09/24 10:47:43;;;;;;;8.67;4.67;;;16.30;74.50;;;;;;4865077;29;20054;-90
2023/09/24 10:50:20;;;;;;;9.70;4.78;;;16.40;74.00;;;;;;4859866;29;20041;-87
2023/09/24 10:52:59;;;;;;;11.18;5.40;;;16.40;73.60;;;;;;4874475;29;20554;-88
2023/09/24 10:55:36;;;;;;;8.35;4.68;;;16.40;74.00;;;;;;4860050;29;20049;-90
2023/09/24 10:58:11;;;;;;;8.77;4.72;;;16.40;74.40;;;;;;4871058;29;20041;-91
2023/09/24 11:00:41;;;;;;;9.07;4.57;;;16.40;72.70;;;;;;4872634;29;20053;-88
2023/09/24 11:03:21;;;;;;;7.95;5.05;;;16.40;72.90;;;;;;4854000;29;20055;-92
2023/09/24 11:06:32;;;;;;;9.00;5.10;;;16.40;74.30;;;;;;4846712;29;20139;-92
2023/09/24 11:15:30;;;;;;;8.82;4.68;;;16.60;74.00;;;;;;4864632;29;20048;-91
2023/09/24 11:18:32;;;;;;;8.97;4.73;;;16.50;72.20;;;;;;4820973;29;20053;-90
2023/09/24 11:21:51;;;;;;;9.27;4.80;;;16.50;72.40;;;;;;4849379;29;20193;-91
2023/09/24 11:29:08;;;;;;;7.47;4.38;;;16.60;72.00;;;;;;4886595;29;20464;-91
2023/09/24 11:31:38;;;;;;;9.43;4.95;;;16.70;72.30;;;;;;4897981;29;20053;-92
2023/09/24 11:34:08;;;;;;;9.37;5.03;;;16.70;72.60;;;;;;4873912;29;20488;-90
2023/09/24 11:37:03;;;;;;;8.68;5.07;;;16.80;72.60;;;;;;4868171;29;20053;-90
2023/09/24 11:41:03;;;;;;;9.43;4.43;;;16.80;72.40;;;;;;4859647;29;20053;-94
2023/09/24 11:44:10;;;;;;;7.55;4.00;;;16.80;72.00;;;;;;4873318;29;20105;-89
2023/09/24 13:28:12;;;;;;;7.40;2.65;;;17.10;69.40;;;;;;4872060;29;20125;-91
2023/09/24 13:30:40;;;;;;;8.07;2.72;;;17.30;70.20;;;;;;4862416;29;20221;-91
2023/09/24 13:38:11;;;;;;;5.80;1.90;;;17.50;69.40;;;;;;4863424;29;20115;-90
2023/09/24 13:45:42;;;;;;;6.68;2.30;;;17.10;67.70;;;;;;4863285;29;20036;-91
2023/09/24 13:48:12;;;;;;;7.07;2.60;;;17.20;68.30;;;;;;4828234;29;20508;-90
2023/09/24 13:51:12;;;;;;;5.53;1.90;;;17.20;67.60;;;;;;4828733;29;20054;-95
2023/09/24 14:02:30;;;;;;;6.15;1.95;;;17.10;68.70;;;;;;4758634;29;20526;-91
2023/09/24 14:53:18;;;;;;;5.00;1.95;;;17.00;70.10;;;;;;874967;23;20307;-84
2023/09/24 14:55:45;;;;;;;6.80;2.78;;;17.10;71.40;;;;;;4894538;29;20049;-91
2023/09/24 14:58:12;;;;;;;7.13;2.65;;;17.10;70.60;;;;;;4880413;29;20053;-92
2023/09/24 15:00:39;;;;;;;5.82;2.20;;;17.20;70.60;;;;;;4864468;29;20060;-92
2023/09/24 15:03:06;;;;;;;6.63;2.43;;;17.20;70.40;;;;;;4879798;29;20140;-93
2023/09/24 15:05:34;;;;;;;5.70;2.35;;;17.20;70.10;;;;;;4879852;29;20064;-93
2023/09/24 15:08:01;;;;;;;9.52;2.72;;;17.10;70.40;;;;;;4871578;29;20061;-92
2023/09/24 15:10:28;;;;;;;6.20;2.45;;;17.10;70.20;;;;;;4881638;29;20159;-92
2023/09/24 15:27:51;;;;;;;9.00;2.60;;;16.80;71.60;;;;;;4827743;29;20080;-89
2023/09/24 15:54:10;;;;;;;6.07;2.40;;;16.80;72.40;;;;;;4846142;29;20130;-90
2023/09/24 15:56:38;;;;;;;6.07;2.60;;;16.70;72.70;;;;;;4844696;29;20586;-89
2023/09/24 15:59:05;;;;;;;6.57;2.57;;;16.70;72.60;;;;;;4866438;29;20057;-89
2023/09/24 16:01:32;;;;;;;5.57;2.22;;;16.70;73.00;;;;;;4897665;29;20089;-89
2023/09/24 16:03:59;;;;;;;7.45;2.92;;;16.70;73.20;;;;;;4881859;29;20492;-89
2023/09/24 16:06:26;;;;;;;6.40;2.50;;;16.80;72.60;;;;;;4897375;29;20076;-89
2023/09/24 16:08:53;;;;;;;6.68;2.60;;;16.80;72.50;;;;;;4897394;29;20542;-89
2023/09/24 16:11:21;;;;;;;6.37;2.83;;;16.80;72.20;;;;;;4878560;29;20062;-89
2023/09/24 16:13:48;;;;;;;5.72;2.50;;;16.80;72.60;;;;;;4878856;29;20065;-89
2023/09/24 16:16:16;;;;;;;7.80;2.78;;;16.80;73.00;;;;;;4863163;29;20058;-89
2023/09/24 16:18:43;;;;;;;6.95;2.42;;;16.80;73.00;;;;;;4847713;29;20109;-90
2023/09/24 16:21:11;;;;;;;7.25;3.05;;;16.90;73.00;;;;;;4863183;29;20057;-89
2023/09/24 16:23:39;;;;;;;8.00;2.60;;;16.80;72.90;;;;;;4863455;29;20062;-89
2023/09/24 16:26:08;;;;;;;6.97;2.78;;;16.80;72.80;;;;;;4863037;29;20073;-89
2023/09/24 16:28:36;;;;;;;7.35;3.30;;;16.80;72.70;;;;;;4878139;29;20064;-89
2023/09/24 16:31:06;;;;;;;7.85;3.55;;;16.70;73.20;;;;;;4863139;29;20065;-89
2023/09/24 16:33:33;;;;;;;6.97;3.05;;;16.70;73.40;;;;;;4878062;29;20058;-89
2023/09/24 16:36:02;;;;;;;7.50;3.33;;;16.60;74.00;;;;;;4862832;29;20419;-89
2023/09/24 16:38:29;;;;;;;7.50;2.80;;;16.50;74.00;;;;;;4878084;29;20117;-92